Time;durP1;ratioP1;P1;durP2;ratioP2;P2;SDS_P1;SDS_P2;PMS_P1;PMS_P2;Temp;Humidity;BMP_temperature;BMP_pressure;BME280_temperature;BME280_humidity;BME280_pressure;Samples;Min_cycle;Max_cycle;Signal;HPM_P1;HPM_P2
2022/04/08 00:01:35;;;;;;;1.90;1.70;;;;;;;14.38;63.92;93372.59;5094575;28;20181;-74
2022/04/08 00:04:02;;;;;;;1.93;1.83;;;;;;;14.37;63.62;93370.97;5091874;28;20177;-74
2022/04/08 00:06:29;;;;;;;2.17;1.77;;;;;;;14.36;63.59;93373.75;5090809;28;20181;-74
2022/04/08 00:08:57;;;;;;;1.83;1.70;;;;;;;14.33;63.25;93367.19;5091732;28;20265;-74
2022/04/08 00:11:25;;;;;;;1.50;1.40;;;;;;;14.34;63.30;93383.44;5101998;28;20212;-74
2022/04/08 00:13:53;;;;;;;3.30;2.00;;;;;;;14.32;63.13;93376.69;5093340;28;20242;-74
2022/04/08 00:16:20;;;;;;;2.53;1.73;;;;;;;14.32;63.33;93383.63;5089636;28;20186;-74
2022/04/08 00:18:48;;;;;;;1.80;1.70;;;;;;;14.29;63.43;93379.69;5097019;28;20198;-74
2022/04/08 00:21:15;;;;;;;1.90;1.77;;;;;;;14.29;63.61;93382.25;5102344;28;20267;-74
2022/04/08 00:23:42;;;;;;;4.13;1.97;;;;;;;14.28;63.30;93390.94;5092252;28;20189;-74
2022/04/08 00:26:11;;;;;;;2.73;1.80;;;;;;;14.29;63.11;93384.81;5101218;28;20243;-74
2022/04/08 00:28:38;;;;;;;1.70;1.60;;;;;;;14.29;62.97;93404.56;5101206;28;20641;-73
2022/04/08 00:31:05;;;;;;;1.80;1.47;;;;;;;14.26;62.88;93405.78;5105839;28;20193;-73
2022/04/08 00:33:32;;;;;;;2.07;1.50;;;;;;;14.28;63.02;93415.84;5106060;28;20221;-75
2022/04/08 00:35:59;;;;;;;1.70;1.57;;;;;;;14.23;62.96;93413.06;5106127;28;20174;-74
2022/04/08 00:38:26;;;;;;;1.70;1.60;;;;;;;14.22;62.89;93409.69;5104955;28;20204;-75
2022/04/08 00:40:53;;;;;;;3.27;1.50;;;;;;;14.18;62.92;93410.28;5105769;28;20181;-73
2022/04/08 00:43:33;;;;;;;4.50;1.87;;;;;;;14.19;63.16;93411.84;5099203;28;20178;-74
2022/04/08 00:45:59;;;;;;;1.87;1.50;;;;;;;14.19;62.92;93404.16;5095167;28;20205;-75
2022/04/08 00:48:26;;;;;;;1.73;1.63;;;;;;;14.17;62.77;93409.50;5102685;28;20213;-73
2022/04/08 00:50:53;;;;;;;2.50;1.73;;;;;;;14.17;62.79;93404.34;5100475;28;20193;-73
2022/04/08 00:53:21;;;;;;;3.13;1.60;;;;;;;14.17;62.41;93401.78;5104293;28;20189;-73
2022/04/08 00:55:48;;;;;;;1.97;1.53;;;;;;;14.16;62.51;93405.34;5101392;28;20200;-74
2022/04/08 00:58:15;;;;;;;2.17;1.70;;;;;;;14.13;62.29;93400.56;5091385;28;20178;-75
2022/04/08 01:00:43;;;;;;;3.37;1.77;;;;;;;14.15;62.06;93408.09;5093765;28;20563;-74
2022/04/08 01:03:10;;;;;;;1.80;1.70;;;;;;;14.02;62.09;93389.03;5099686;28;20575;-74
2022/04/08 01:05:37;;;;;;;3.07;1.77;;;;;;;14.13;61.96;93394.63;5092510;28;20212;-74
2022/04/08 01:08:09;;;;;;;1.90;1.80;;;;;;;14.11;61.95;93404.31;5092232;28;20194;-73
2022/04/08 01:10:36;;;;;;;1.70;1.60;;;;;;;14.09;61.79;93403.72;5105778;28;20192;-73
2022/04/08 01:13:03;;;;;;;1.60;1.50;;;;;;;14.10;61.56;93413.78;5095245;28;20684;-72
2022/04/08 01:15:30;;;;;;;2.43;1.63;;;;;;;14.10;61.48;93421.50;5098496;28;20221;-74
2022/04/08 01:17:58;;;;;;;2.53;1.97;;;;;;;14.09;61.42;93417.34;5096891;28;20197;-73
2022/04/08 01:20:26;;;;;;;3.30;1.70;;;;;;;14.08;61.33;93422.69;5097002;28;20208;-73
2022/04/08 01:22:53;;;;;;;1.80;1.70;;;;;;;14.05;61.22;93424.66;5094221;28;20178;-73
2022/04/08 01:25:21;;;;;;;2.40;1.73;;;;;;;14.06;60.88;93431.38;5096834;28;20190;-75
2022/04/08 01:27:48;;;;;;;2.13;2.00;;;;;;;13.95;60.95;93423.41;5091255;28;20200;-75
2022/04/08 01:30:16;;;;;;;1.80;1.70;;;;;;;14.04;61.03;93433.34;5096297;28;20209;-73
2022/04/08 01:32:43;;;;;;;3.00;2.00;;;;;;;14.05;60.92;93437.50;5097644;28;20209;-74
2022/04/08 01:35:10;;;;;;;1.87;1.77;;;;;;;14.04;60.95;93435.91;5091160;28;20213;-74
2022/04/08 01:37:37;;;;;;;2.03;1.80;;;;;;;14.05;60.36;93440.06;5093151;28;20557;-74
2022/04/08 01:40:04;;;;;;;2.47;1.63;;;;;;;14.06;60.68;93439.09;5101370;28;20216;-74
2022/04/08 01:42:32;;;;;;;1.63;1.43;;;;;;;14.08;60.26;93443.25;5092386;28;20189;-74
2022/04/08 01:44:59;;;;;;;1.73;1.63;;;;;;;14.04;60.30;93425.63;5097396;28;20181;-74
2022/04/08 01:47:26;;;;;;;1.90;1.80;;;;;;;14.07;60.25;93434.72;5093908;28;20350;-74
2022/04/08 01:49:53;;;;;;;1.73;1.63;;;;;;;14.05;60.13;93434.94;5099749;28;20220;-73
2022/04/08 01:52:20;;;;;;;1.80;1.67;;;;;;;14.05;59.81;93427.22;5093570;28;20194;-74
2022/04/08 01:54:46;;;;;;;1.97;1.83;;;;;;;14.07;59.66;93429.59;5090660;28;20192;-73
2022/04/08 01:57:13;;;;;;;2.33;1.90;;;;;;;14.07;59.54;93437.31;5095994;28;20185;-73
2022/04/08 01:59:41;;;;;;;3.33;1.93;;;;;;;14.05;59.51;93439.28;5098803;28;20198;-74
2022/04/08 02:02:08;;;;;;;2.30;2.00;;;;;;;14.06;59.44;93439.09;5099395;28;20174;-73
2022/04/08 02:04:35;;;;;;;2.07;1.90;;;;;;;14.06;59.27;93448.56;5094711;28;20185;-74
2022/04/08 02:07:06;;;;;;;2.30;1.90;;;;;;;14.00;59.37;93439.84;5090551;28;21979;-74
2022/04/08 02:09:33;;;;;;;3.07;1.70;;;;;;;14.04;59.36;93441.06;5090368;28;20315;-74
2022/04/08 02:12:00;;;;;;;3.77;1.90;;;;;;;14.04;59.53;93447.97;5097232;28;20197;-74
2022/04/08 02:14:27;;;;;;;2.20;2.00;;;;;;;14.01;59.51;93444.00;5095584;28;20185;-74
2022/04/08 02:16:55;;;;;;;2.17;1.67;;;;;;;14.02;59.26;93445.59;5092310;28;20266;-73
2022/04/08 02:19:22;;;;;;;2.60;2.00;;;;;;;14.03;59.18;93446.38;5102363;28;20656;-74
2022/04/08 02:21:49;;;;;;;1.87;1.77;;;;;;;13.98;59.18;93435.88;5095921;28;20189;-74
2022/04/08 02:24:16;;;;;;;1.80;1.70;;;;;;;14.00;59.16;93454.47;5097464;28;20287;-73
2022/04/08 02:26:43;;;;;;;2.50;2.30;;;;;;;13.99;59.14;93456.25;5097394;28;20240;-74
2022/04/08 02:29:10;;;;;;;2.00;1.90;;;;;;;14.01;58.98;93466.34;5095075;28;20202;-75
2022/04/08 02:31:37;;;;;;;1.97;1.80;;;;;;;13.94;58.89;93458.56;5094025;28;20677;-75
2022/04/08 02:34:05;;;;;;;1.83;1.73;;;;;;;14.00;58.64;93475.03;5095732;28;20236;-75
2022/04/08 02:36:32;;;;;;;1.80;1.70;;;;;;;13.99;58.75;93494.81;5099013;28;20545;-75
2022/04/08 02:38:59;;;;;;;5.07;2.17;;;;;;;14.01;58.65;93502.34;5094354;28;20185;-73
2022/04/08 02:41:26;;;;;;;2.10;1.90;;;;;;;14.02;58.42;93489.28;5101202;28;20186;-73
2022/04/08 02:43:53;;;;;;;2.13;1.70;;;;;;;14.05;57.92;93493.25;5098205;28;20562;-74
2022/04/08 02:46:20;;;;;;;2.90;1.90;;;;;;;14.03;57.81;93502.94;5096447;28;20196;-74
2022/04/08 02:48:46;;;;;;;2.33;1.70;;;;;;;14.03;57.91;93497.78;5094518;28;20205;-74
2022/04/08 02:51:15;;;;;;;2.30;2.10;;;;;;;14.02;57.75;93493.63;5096643;28;20177;-74
2022/04/08 02:53:41;;;;;;;3.93;1.80;;;;;;;14.03;57.75;93513.19;5100531;28;20190;-75
2022/04/08 02:56:08;;;;;;;3.83;1.97;;;;;;;14.03;57.44;93502.94;5093424;28;20186;-73
2022/04/08 02:58:36;;;;;;;2.67;2.10;;;;;;;14.04;57.42;93500.19;5092326;28;20186;-74
2022/04/08 03:01:03;;;;;;;1.80;1.70;;;;;;;14.03;57.25;93500.34;5103176;28;20234;-73
2022/04/08 03:03:30;;;;;;;1.90;1.70;;;;;;;14.05;57.08;93516.41;5100008;28;20186;-74
2022/04/08 03:05:58;;;;;;;2.83;1.80;;;;;;;14.04;57.12;93525.88;5101084;28;20182;-74
2022/04/08 03:08:26;;;;;;;1.60;1.50;;;;;;;14.04;57.44;93518.19;5101710;28;20193;-74
2022/04/08 03:10:54;;;;;;;5.83;1.77;;;;;;;14.05;56.99;93518.97;5098281;28;20221;-73
2022/04/08 03:13:20;;;;;;;1.90;1.80;;;;;;;14.04;56.81;93517.38;5089326;28;20317;-75
2022/04/08 03:15:47;;;;;;;1.90;1.80;;;;;;;14.07;56.68;93529.84;5090029;28;20181;-75
2022/04/08 03:18:14;;;;;;;5.43;1.97;;;;;;;14.04;56.54;93522.53;5102668;28;20697;-74
2022/04/08 03:20:41;;;;;;;1.50;1.40;;;;;;;14.04;56.39;93528.47;5089771;28;20216;-74
2022/04/08 03:23:08;;;;;;;1.93;1.77;;;;;;;14.01;56.50;93512.63;5089930;28;20182;-74
2022/04/08 03:25:36;;;;;;;1.93;1.70;;;;;;;14.03;56.51;93533.75;5098105;28;20736;-74
2022/04/08 03:28:03;;;;;;;1.70;1.60;;;;;;;14.04;56.46;93545.66;5099984;28;20329;-75
2022/04/08 03:30:31;;;;;;;1.70;1.60;;;;;;;14.05;56.32;93544.66;5101725;28;20216;-74
2022/04/08 03:32:58;;;;;;;1.63;1.53;;;;;;;14.03;56.24;93547.44;5099724;28;20558;-74
2022/04/08 03:35:25;;;;;;;1.60;1.50;;;;;;;14.00;56.26;93554.72;5089852;28;20671;-73
2022/04/08 03:37:52;;;;;;;2.00;1.73;;;;;;;14.02;56.19;93573.31;5098667;28;20181;-75
2022/04/08 03:40:19;;;;;;;2.73;1.63;;;;;;;14.01;56.12;93574.31;5093617;28;20189;-74
2022/04/08 03:42:47;;;;;;;1.60;1.50;;;;;;;14.01;56.25;93585.38;5089416;28;20607;-74
2022/04/08 03:45:14;;;;;;;2.70;1.53;;;;;;;13.99;56.18;93582.22;5097513;28;20192;-74
2022/04/08 03:47:41;;;;;;;1.63;1.53;;;;;;;13.97;56.40;93581.59;5089509;28;20178;-74
2022/04/08 03:50:08;;;;;;;1.90;1.67;;;;;;;13.94;56.32;93581.94;5101716;28;20205;-74
2022/04/08 03:52:35;;;;;;;2.50;1.53;;;;;;;13.93;56.42;93584.72;5095730;28;20653;-74
2022/04/08 03:55:03;;;;;;;1.73;1.43;;;;;;;13.91;56.38;93584.91;5089535;28;20189;-74
2022/04/08 03:57:30;;;;;;;2.47;1.70;;;;;;;13.92;56.11;93604.47;5092893;28;20277;-74
2022/04/08 03:59:58;;;;;;;1.80;1.70;;;;;;;13.93;56.16;93589.84;5093215;28;20185;-74
2022/04/08 04:02:25;;;;;;;1.50;1.40;;;;;;;13.93;56.20;93595.00;5088944;28;20569;-73
2022/04/08 04:04:55;;;;;;;1.80;1.70;;;;;;;13.95;55.92;93603.31;5093491;28;20742;-73
2022/04/08 04:07:22;;;;;;;1.50;1.40;;;;;;;13.95;56.01;93595.63;5099373;28;20598;-74
2022/04/08 04:09:48;;;;;;;2.37;1.50;;;;;;;13.96;55.82;93603.13;5106827;28;20220;-74
2022/04/08 04:12:15;;;;;;;3.30;1.50;;;;;;;14.01;55.75;93607.72;5094461;28;20186;-74
2022/04/08 04:14:42;;;;;;;1.73;1.63;;;;;;;14.01;55.67;93598.22;5094567;28;20227;-74
2022/04/08 04:17:10;;;;;;;1.80;1.70;;;;;;;14.03;55.73;93610.88;5092031;28;20196;-76
2022/04/08 04:19:37;;;;;;;1.77;1.50;;;;;;;14.07;55.50;93622.38;5098910;28;20198;-76
2022/04/08 04:22:04;;;;;;;1.60;1.50;;;;;;;14.13;55.42;93619.09;5097587;28;20185;-74
2022/04/08 04:24:31;;;;;;;1.50;1.40;;;;;;;14.22;55.26;93633.41;5093995;28;20189;-74
2022/04/08 04:26:58;;;;;;;3.20;1.50;;;;;;;14.30;55.09;93635.84;5093374;28;20205;-74
2022/04/08 04:29:25;;;;;;;1.60;1.50;;;;;;;14.43;54.76;93649.78;5093628;28;20208;-76
2022/04/08 04:31:55;;;;;;;1.63;1.40;;;;;;;14.53;54.58;93635.63;5107441;28;20192;-74
2022/04/08 04:34:23;;;;;;;1.70;1.60;;;;;;;14.65;54.18;93635.13;5095258;28;20232;-74
2022/04/08 04:36:50;;;;;;;3.50;1.60;;;;;;;14.74;53.86;93628.84;5097272;28;20488;-75
2022/04/08 04:39:17;;;;;;;1.77;1.67;;;;;;;14.88;53.66;93643.38;5112340;28;20194;-75
2022/04/08 04:41:44;;;;;;;1.67;1.57;;;;;;;15.00;53.49;93635.91;5113923;28;20196;-76
2022/04/08 04:44:10;;;;;;;2.60;1.80;;;;;;;15.14;53.09;93644.50;5113214;28;20193;-72
2022/04/08 04:46:37;;;;;;;1.70;1.60;;;;;;;15.26;53.01;93636.03;5103950;28;20914;-76
2022/04/08 04:49:04;;;;;;;1.90;1.73;;;;;;;15.39;52.67;93644.81;5090666;28;20186;-73
2022/04/08 04:51:32;;;;;;;1.80;1.70;;;;;;;15.50;52.20;93644.22;5091305;28;20200;-78
2022/04/08 04:53:59;;;;;;;1.83;1.73;;;;;;;15.62;52.11;93659.94;5095121;28;20189;-74
2022/04/08 04:56:26;;;;;;;1.20;1.20;;;;;;;16.04;79.75;93661.44;5111254;28;20199;-75
2022/04/08 04:58:53;;;;;;;4.60;3.23;;;;;;;16.53;80.61;93660.28;5111259;28;20278;-76
2022/04/08 05:01:20;;;;;;;5.43;3.60;;;;;;;17.13;78.79;93691.22;5110584;28;20208;-74
2022/04/08 05:03:46;;;;;;;8.20;2.60;;;;;;;17.64;75.33;93680.13;5111552;28;20181;-76
2022/04/08 05:06:13;;;;;;;2.40;1.93;;;;;;;18.09;71.22;93680.09;5110908;28;20185;-74
2022/04/08 05:08:41;;;;;;;10.87;2.23;;;;;;;18.50;69.27;93690.00;5110691;28;20222;-77
2022/04/08 05:11:08;;;;;;;2.00;1.80;;;;;;;18.81;65.05;93699.53;5109250;28;20327;-71
2022/04/08 05:13:35;;;;;;;5.43;1.83;;;;;;;19.05;60.04;93716.06;5103127;28;20190;-73
2022/04/08 05:16:02;;;;;;;2.83;1.70;;;;;;;19.35;57.97;93716.19;5091992;28;20189;-73
2022/04/08 05:18:29;;;;;;;2.73;1.60;;;;;;;19.75;55.89;93707.97;5093118;28;20190;-73
2022/04/08 05:20:56;;;;;;;2.10;1.67;;;;;;;20.25;53.57;93723.28;5093159;28;20209;-73
2022/04/08 05:23:28;;;;;;;2.03;1.67;;;;;;;20.83;51.84;93716.69;5092765;28;20194;-73
2022/04/08 05:25:56;;;;;;;5.03;2.33;;;;;;;21.54;50.06;93731.25;5092359;28;20186;-74
2022/04/08 05:28:23;;;;;;;2.30;2.10;;;;;;;22.26;48.47;93733.47;5092555;28;20197;-74
2022/04/08 05:30:50;;;;;;;2.28;2.00;;;;;;;23.00;46.58;93734.22;5092397;28;20206;-73
2022/04/08 05:33:17;;;;;;;2.97;1.52;;;;;;;23.76;44.75;93737.13;5092535;28;20225;-72
2022/04/08 05:35:45;;;;;;;1.60;1.50;;;;;;;24.52;42.65;93736.38;5097004;28;20609;-73
2022/04/08 05:38:12;;;;;;;1.70;1.60;;;;;;;25.30;41.79;93721.06;5111911;28;20193;-74
2022/04/08 05:40:40;;;;;;;3.75;1.55;;;;;;;26.01;39.89;93733.75;5112691;28;20236;-73
2022/04/08 05:43:08;;;;;;;2.95;1.40;;;;;;;26.79;38.38;93744.16;5113007;28;20260;-75
2022/04/08 05:45:35;;;;;;;2.80;1.60;;;;;;;27.49;36.73;93737.31;5112432;28;20224;-72
2022/04/08 05:48:04;;;;;;;2.33;1.45;;;;;;;28.24;35.25;93741.81;5112422;28;20200;-73
2022/04/08 05:50:31;;;;;;;1.50;1.40;;;;;;;28.95;34.50;93756.41;5112204;28;20619;-73
2022/04/08 05:52:58;;;;;;;1.10;1.10;;;;;;;29.62;33.13;93746.91;5112782;28;20192;-73
2022/04/08 05:55:25;;;;;;;1.67;1.42;;;;;;;30.26;32.22;93752.78;5112344;28;20189;-73
2022/04/08 05:57:53;;;;;;;1.30;1.30;;;;;;;30.88;30.99;93752.78;5112324;28;20204;-73
2022/04/08 06:00:22;;;;;;;2.15;1.70;;;;;;;31.51;30.21;93738.28;5112243;28;20570;-73
2022/04/08 06:02:49;;;;;;;3.63;1.60;;;;;;;32.10;29.04;93753.31;5110627;28;20181;-72
2022/04/08 06:05:18;;;;;;;1.85;1.30;;;;;;;32.64;28.74;93753.53;5112443;28;20185;-72
2022/04/08 06:07:46;;;;;;;1.25;1.25;;;;;;;33.20;27.66;93761.00;5112391;28;20290;-73
2022/04/08 06:10:18;;;;;;;1.70;1.60;;;;;;;33.72;26.84;93757.88;5112113;28;20251;-73
2022/04/08 06:12:45;;;;;;;1.77;1.20;;;;;;;34.24;26.43;93771.34;5109909;28;20220;-73
2022/04/08 06:15:12;;;;;;;1.58;1.40;;;;;;;34.69;25.63;93769.25;5091613;28;20190;-73
2022/04/08 06:17:41;;;;;;;1.30;1.30;;;;;;;35.14;25.21;93754.88;5091551;28;20185;-75
2022/04/08 06:20:10;;;;;;;1.30;1.30;;;;;;;35.60;24.70;93774.69;5091972;28;20197;-75
2022/04/08 06:22:39;;;;;;;1.98;1.40;;;;;;;36.00;23.96;93767.22;5091350;28;20189;-75
2022/04/08 06:25:07;;;;;;;1.42;1.33;;;;;;;36.39;23.75;93767.97;5091485;28;20186;-74
2022/04/08 06:27:34;;;;;;;1.70;1.60;;;;;;;36.77;23.23;93780.44;5090162;28;20197;-74
2022/04/08 06:30:02;;;;;;;1.80;1.60;;;;;;;37.11;22.81;93769.53;5097933;28;20223;-72
2022/04/08 06:32:28;;;;;;;2.45;1.50;;;;;;;37.47;22.43;93770.00;5106944;28;20353;-73
2022/04/08 06:34:57;;;;;;;1.67;1.58;;;;;;;37.81;21.96;93763.50;5107017;28;20221;-73
2022/04/08 06:37:28;;;;;;;1.50;1.40;;;;;;;38.15;21.46;93757.75;5107741;28;20189;-73
2022/04/08 06:39:55;;;;;;;2.05;1.40;;;;;;;38.46;21.25;93772.44;5108774;28;20246;-74
2022/04/08 06:42:22;;;;;;;1.10;1.10;;;;;;;38.74;21.15;93780.53;5107283;28;20728;-72
2022/04/08 06:44:49;;;;;;;2.03;1.55;;;;;;;38.98;20.34;93785.06;5110691;28;20200;-73
2022/04/08 06:47:15;;;;;;;1.50;1.40;;;;;;;39.17;20.41;93791.69;5110518;28;20663;-74
2022/04/08 06:49:44;;;;;;;1.85;1.35;;;;;;;39.34;19.93;93800.25;5110119;28;20644;-74
2022/04/08 06:52:13;;;;;;;1.48;1.38;;;;;;;39.50;19.97;93788.78;5108084;28;20215;-72
2022/04/08 06:54:40;;;;;;;1.77;1.67;;;;;;;39.68;19.44;93792.72;5108371;28;20609;-73
2022/04/08 06:57:07;;;;;;;1.45;1.35;;;;;;;39.85;19.69;93805.78;5109790;28;20189;-72
2022/04/08 06:59:34;;;;;;;3.03;1.65;;;;;;;40.02;19.68;93803.88;5107788;28;20203;-74
2022/04/08 07:02:00;;;;;;;2.08;1.70;;;;;;;40.17;19.60;93800.47;5110629;28;20242;-73
2022/04/08 07:04:27;;;;;;;2.03;1.70;;;;;;;40.34;18.88;93794.75;5110435;28;20189;-73
2022/04/08 07:06:56;;;;;;;1.90;1.67;;;;;;;40.51;19.06;93798.19;5109662;28;20700;-73
2022/04/08 07:09:29;;;;;;;3.50;1.50;;;;;;;40.65;19.05;93795.06;5107631;28;20624;-73
2022/04/08 07:11:55;;;;;;;1.60;1.50;;;;;;;40.74;19.05;93801.00;5109917;28;20220;-74
2022/04/08 07:14:22;;;;;;;4.70;1.85;;;;;;;40.81;18.56;93807.28;5107762;28;20193;-72
2022/04/08 07:16:49;;;;;;;1.73;1.63;;;;;;;40.88;18.79;93806.66;5109798;28;20572;-73
2022/04/08 07:19:16;;;;;;;2.92;1.60;;;;;;;40.95;18.71;93811.41;5105200;28;20667;-71
2022/04/08 07:21:43;;;;;;;2.72;1.88;;;;;;;40.98;18.49;93816.88;5107339;28;20185;-72
2022/04/08 07:24:10;;;;;;;2.22;1.70;;;;;;;41.00;18.71;93819.97;5109974;28;20196;-71
2022/04/08 07:26:38;;;;;;;1.75;1.63;;;;;;;41.03;18.53;93821.97;5109371;28;20203;-72
2022/04/08 07:29:05;;;;;;;1.70;1.60;;;;;;;41.07;18.09;93827.41;5105300;28;20184;-71
2022/04/08 07:31:32;;;;;;;1.50;1.40;;;;;;;41.09;18.10;93833.19;5108537;28;20233;-71
2022/04/08 07:33:59;;;;;;;1.60;1.50;;;;;;;41.13;18.25;93834.03;5106747;28;20224;-73
2022/04/08 07:36:26;;;;;;;1.48;1.27;;;;;;;41.17;18.16;93840.25;5108628;28;20191;-71
2022/04/08 07:38:53;;;;;;;2.92;1.55;;;;;;;41.20;18.33;93833.41;5103542;28;20202;-72
2022/04/08 07:41:20;;;;;;;2.55;1.75;;;;;;;41.18;18.38;93836.44;5109055;28;20188;-71
2022/04/08 07:43:49;;;;;;;1.92;1.48;;;;;;;41.16;18.28;93840.63;5108670;28;20181;-71
2022/04/08 07:46:16;;;;;;;1.50;1.30;;;;;;;41.14;17.86;93842.84;5106410;28;20193;-71
2022/04/08 07:48:43;;;;;;;3.83;1.67;;;;;;;41.09;18.34;93839.31;5109308;28;20635;-72
2022/04/08 07:51:09;;;;;;;1.70;1.60;;;;;;;41.05;18.19;93851.88;5106193;28;20201;-72
2022/04/08 07:53:37;;;;;;;2.72;1.50;;;;;;;41.02;17.86;93849.13;5109403;28;20211;-71
2022/04/08 07:56:04;;;;;;;3.05;1.70;;;;;;;40.98;18.01;93856.31;5108330;28;20238;-70
2022/04/08 07:58:31;;;;;;;1.80;1.60;;;;;;;40.91;18.50;93864.19;5107975;28;20188;-71
2022/04/08 08:00:59;;;;;;;2.67;1.40;;;;;;;40.85;18.25;93863.69;5108975;28;20177;-71
2022/04/08 08:03:26;;;;;;;1.80;1.65;;;;;;;40.76;18.12;93863.91;5109416;28;20193;-70
2022/04/08 08:05:53;;;;;;;3.60;1.85;;;;;;;40.66;18.32;93861.72;5109591;28;20196;-70
2022/04/08 08:08:20;;;;;;;2.13;1.65;;;;;;;40.57;18.44;93861.16;5106430;28;20198;-70
2022/04/08 08:10:47;;;;;;;1.50;1.40;;;;;;;40.48;18.06;93866.66;5107289;28;20691;-70
2022/04/08 08:13:14;;;;;;;2.55;1.80;;;;;;;40.39;18.22;93866.06;5107871;28;20938;-70
2022/04/08 08:15:41;;;;;;;1.55;1.30;;;;;;;40.28;18.39;93865.78;5108333;28;20193;-70
2022/04/08 08:18:09;;;;;;;3.22;1.58;;;;;;;40.17;18.09;93856.72;5108725;28;20180;-71
2022/04/08 08:20:37;;;;;;;2.92;1.52;;;;;;;40.02;18.23;93863.59;5109518;28;20243;-71
2022/04/08 08:23:06;;;;;;;2.75;2.55;;;;;;;39.87;18.26;93862.47;5109110;28;20224;-71
2022/04/08 08:25:33;;;;;;;2.65;1.67;;;;;;;39.70;18.38;93873.47;5109093;28;20208;-69
2022/04/08 08:28:01;;;;;;;2.60;1.85;;;;;;;39.54;18.64;93870.72;5109021;28;20220;-70
2022/04/08 08:30:30;;;;;;;2.22;1.80;;;;;;;39.37;18.73;93871.78;5106203;28;20203;-71
2022/04/08 08:32:58;;;;;;;1.92;1.70;;;;;;;39.21;18.61;93881.66;5108797;28;20258;-71
2022/04/08 08:35:27;;;;;;;1.98;1.55;;;;;;;39.02;18.75;93876.88;5108572;28;20268;-71
2022/04/08 08:37:54;;;;;;;4.00;1.48;;;;;;;38.81;18.90;93878.91;5106889;28;20200;-69
2022/04/08 08:40:20;;;;;;;1.50;1.40;;;;;;;38.59;19.15;93880.88;5107664;28;20186;-70
2022/04/08 08:42:47;;;;;;;1.90;1.70;;;;;;;38.39;19.54;93882.56;5107684;28;20223;-70
2022/04/08 08:45:15;;;;;;;2.58;1.80;;;;;;;38.19;19.45;93885.31;5109135;28;20193;-71
2022/04/08 08:47:47;;;;;;;2.92;1.70;;;;;;;37.92;20.10;93886.69;5109053;28;20217;-71
2022/04/08 08:50:14;;;;;;;1.70;1.60;;;;;;;37.71;19.82;93894.72;5111903;28;20193;-71
2022/04/08 08:52:43;;;;;;;3.28;1.50;;;;;;;37.48;19.96;93895.06;5112660;28;20217;-70
2022/04/08 08:55:10;;;;;;;2.30;1.50;;;;;;;37.29;19.87;93902.72;5110406;28;20249;-71
2022/04/08 08:57:37;;;;;;;1.75;1.45;;;;;;;37.06;20.28;93895.03;5112646;28;20219;-71
2022/04/08 09:00:12;;;;;;;2.75;1.60;;;;;;;36.83;20.19;93901.72;5112639;28;20201;-71
2022/04/08 09:02:39;;;;;;;3.22;1.83;;;;;;;36.59;20.29;93905.00;5110464;28;20196;-72
2022/04/08 09:05:14;;;;;;;3.80;1.65;;;;;;;36.34;20.45;93903.97;5112641;28;20204;-71
2022/04/08 09:07:43;;;;;;;2.53;1.70;;;;;;;36.01;20.56;93885.13;5094128;28;20234;-71
2022/04/08 09:10:10;;;;;;;1.95;1.83;;;;;;;35.81;20.68;93905.19;5108580;28;20201;-71
2022/04/08 09:12:36;;;;;;;2.28;1.55;;;;;;;35.56;20.78;93910.22;5111786;28;20220;-71
2022/04/08 09:15:04;;;;;;;5.60;1.60;;;;;;;35.30;20.86;93888.91;5111598;28;20227;-71
2022/04/08 09:17:31;;;;;;;2.05;1.80;;;;;;;35.10;21.00;93892.19;5112255;28;20196;-71
2022/04/08 09:20:00;;;;;;;2.22;1.80;;;;;;;34.87;21.41;93897.59;5112182;28;20193;-70
2022/04/08 09:22:28;;;;;;;3.53;1.83;;;;;;;34.62;21.46;93885.03;5112171;28;20181;-71
2022/04/08 09:25:08;;;;;;;3.40;1.70;;;;;;;34.35;21.37;93886.00;5111973;28;20212;-72
2022/04/08 09:27:35;;;;;;;3.67;1.63;;;;;;;34.11;21.84;93879.22;5107304;28;20238;-70
2022/04/08 09:30:02;;;;;;;1.98;1.58;;;;;;;33.88;21.81;93890.91;5105263;28;20637;-72
2022/04/08 09:32:29;;;;;;;4.68;1.40;;;;;;;33.65;22.11;93882.19;5109090;28;20197;-72
2022/04/08 09:34:55;;;;;;;1.58;1.48;;;;;;;33.44;21.86;93884.53;5110672;28;20231;-70
2022/04/08 09:37:23;;;;;;;7.15;1.60;;;;;;;33.19;22.23;93880.56;5111131;28;20189;-71
2022/04/08 09:39:57;;;;;;;3.60;1.60;;;;;;;32.90;22.78;93870.28;5111192;28;20192;-71
2022/04/08 09:42:25;;;;;;;1.70;1.60;;;;;;;32.66;22.96;93870.53;5108754;28;20283;-71
2022/04/08 09:44:52;;;;;;;1.88;1.50;;;;;;;32.34;23.58;93861.59;5111263;28;20261;-71
2022/04/08 09:47:19;;;;;;;3.53;2.00;;;;;;;32.01;24.20;93866.19;5111832;28;20236;-71
2022/04/08 09:49:45;;;;;;;1.92;1.70;;;;;;;31.73;24.44;93858.16;5110490;28;20663;-70
2022/04/08 09:52:14;;;;;;;4.05;1.98;;;;;;;31.46;24.62;93866.78;5105915;28;20220;-73
2022/04/08 09:54:44;;;;;;;2.13;1.80;;;;;;;31.20;24.63;93869.00;5111056;28;20185;-71
2022/04/08 09:57:18;;;;;;;2.55;1.83;;;;;;;30.92;24.93;93870.72;5111475;28;20204;-71
2022/04/08 09:59:47;;;;;;;3.15;1.80;;;;;;;30.64;25.63;93863.66;5111433;28;20196;-74
2022/04/08 10:02:15;;;;;;;7.20;1.90;;;;;;;30.36;25.49;93863.47;5110595;28;20246;-71
2022/04/08 10:04:44;;;;;;;3.45;1.90;;;;;;;30.06;25.85;93853.22;5107611;28;20220;-71
2022/04/08 10:07:12;;;;;;;2.42;1.70;;;;;;;29.84;26.47;93861.63;5111150;28;20200;-71
2022/04/08 10:09:49;;;;;;;2.05;1.65;;;;;;;29.58;26.61;93859.22;5110346;28;20205;-72
2022/04/08 10:12:28;;;;;;;2.13;1.80;;;;;;;29.32;27.01;93863.06;5110384;28;20205;-71
2022/04/08 10:15:03;;;;;;;6.28;2.08;;;;;;;29.12;26.97;93851.63;5108828;28;20193;-72
2022/04/08 10:17:29;;;;;;;6.35;2.33;;;;;;;28.90;27.35;93843.31;5110986;28;20192;-74
2022/04/08 10:20:16;;;;;;;4.25;2.03;;;;;;;28.76;27.83;93851.03;5106186;28;20188;-72
2022/04/08 10:22:43;;;;;;;3.17;1.92;;;;;;;28.63;27.86;93854.25;5108048;28;20199;-73
2022/04/08 10:25:15;;;;;;;2.00;1.80;;;;;;;28.49;27.81;93864.53;5110532;28;20695;-73
2022/04/08 10:27:44;;;;;;;3.97;1.98;;;;;;;28.38;28.15;93855.13;5107712;28;20224;-74
2022/04/08 10:30:13;;;;;;;1.60;1.50;;;;;;;28.29;28.17;93854.88;5109728;28;20184;-74
2022/04/08 10:32:41;;;;;;;1.70;1.60;;;;;;;28.07;27.84;93836.81;5107986;28;20204;-73
2022/04/08 10:35:18;;;;;;;1.77;1.65;;;;;;;27.98;27.34;93831.31;5110636;28;20734;-72
2022/04/08 10:37:56;;;;;;;2.80;1.55;;;;;;;27.94;27.74;93845.25;5108133;28;20933;-71
2022/04/08 10:40:29;;;;;;;1.83;1.73;;;;;;;27.89;27.62;93838.16;5108532;28;20616;-72
2022/04/08 10:43:02;;;;;;;1.60;1.50;;;;;;;27.83;27.08;93839.22;5110605;28;20660;-71
2022/04/08 10:45:29;;;;;;;3.38;1.50;;;;;;;27.74;27.20;93838.97;5110459;28;20853;-71
2022/04/08 10:48:00;;;;;;;2.75;1.85;;;;;;;27.60;27.45;93816.91;5110322;28;20185;-70
2022/04/08 10:50:27;;;;;;;2.00;1.80;;;;;;;27.60;27.64;93832.66;5109015;28;20598;-72
2022/04/08 10:53:12;;;;;;;2.25;1.65;;;;;;;27.54;27.23;93823.19;5107482;28;20223;-71
2022/04/08 10:55:47;;;;;;;1.73;1.63;;;;;;;27.49;27.64;93820.56;5109865;28;20203;-72
2022/04/08 10:58:16;;;;;;;1.48;1.42;;;;;;;27.46;27.31;93810.59;5110322;28;20204;-72
2022/04/08 11:00:44;;;;;;;2.78;1.60;;;;;;;27.40;27.28;93814.28;5110088;28;20189;-72
2022/04/08 11:03:11;;;;;;;1.63;1.52;;;;;;;27.41;27.48;93816.63;5110132;28;20200;-71
2022/04/08 11:05:39;;;;;;;1.52;1.45;;;;;;;27.33;27.49;93808.50;5110071;28;20196;-72
2022/04/08 11:08:08;;;;;;;2.88;1.70;;;;;;;27.34;27.53;93824.00;5107899;28;20559;-72
2022/04/08 11:10:35;;;;;;;4.53;1.70;;;;;;;27.28;27.50;93825.03;5107907;28;20228;-71
2022/04/08 11:13:02;;;;;;;2.10;1.40;;;;;;;27.23;27.56;93819.78;5108368;28;20231;-71
2022/04/08 11:15:31;;;;;;;1.50;1.40;;;;;;;27.20;27.40;93818.50;5109969;28;20204;-71
2022/04/08 11:18:01;;;;;;;1.58;1.48;;;;;;;27.16;27.10;93814.81;5107503;28;20337;-71
2022/04/08 11:20:28;;;;;;;2.67;1.58;;;;;;;27.16;27.15;93814.00;5109902;28;21163;-71
2022/04/08 11:22:56;;;;;;;1.40;1.30;;;;;;;27.16;26.99;93814.81;5110234;28;20220;-72
2022/04/08 11:25:25;;;;;;;1.95;1.58;;;;;;;27.10;27.22;93805.34;5109454;28;20193;-72
2022/04/08 11:27:58;;;;;;;1.92;1.40;;;;;;;27.12;27.20;93810.34;5109445;28;20186;-72
2022/04/08 11:30:25;;;;;;;4.53;1.60;;;;;;;27.09;27.06;93803.78;5109155;28;20189;-73
2022/04/08 11:32:54;;;;;;;1.77;1.40;;;;;;;27.12;26.97;93813.78;5108813;28;20204;-73
2022/04/08 11:35:21;;;;;;;2.78;1.42;;;;;;;27.12;26.96;93807.72;5109686;28;20181;-72
2022/04/08 11:37:48;;;;;;;3.10;1.58;;;;;;;27.09;26.86;93813.47;5109649;28;20648;-70